CheckWX is a tool to help pilots better visualize weather data.  It is not intended as a substitute for an official pre-flight weather briefing.

03:09:54 UTC

KEGI METAR
Duke Field Airport
Crestview, Florida, USA
Current

14 mins ago

KEGI 290256Z AUTO 28007KT 10SM CLR 10/07 A3024 RMK AO2 SLP242 T00980067 $
Observed
Feb-29 @ 02:56 UTC
Wind
  • 280° at 7 KTS
Visibility
10 SM
Flight Rules
VFR
Cloud Levels
  • Clear skies
Temperature
10°C / 50°F
Dewpoint
C / 45°F
Humidity
82%
Altimeter
30.24" Hg
Pressure
1024.02 hPa
Previous

1 hour ago

KEGI 290156Z AUTO 25005KT 10SM CLR 11/06 A3021 RMK AO2 SLP232 T01070059 $
Observed
Feb-29 @ 01:56 UTC
Wind
  • 250° at 5 KTS
Visibility
10 SM
Flight Rules
VFR
Cloud Levels
  • Clear skies
Temperature
11°C / 52°F
Dewpoint
C / 43°F
Humidity
72%
Altimeter
30.21" Hg
Pressure
1023.02 hPa
Previous

2 hours ago

KEGI 290056Z COR 23007KT 10SM CLR 11/06 A3019 RMK AO2A SLP225 T01130056 $ COR 0109
Observed
Feb-29 @ 00:56 UTC
Wind
  • 230° at 7 KTS
Visibility
10 SM
Flight Rules
VFR
Cloud Levels
  • Clear skies
Temperature
11°C / 52°F
Dewpoint
C / 43°F
Humidity
72%
Altimeter
30.19" Hg
Pressure
1022.32 hPa